sensor_id;sensor_type;location;lat;lon;timestamp;temperature;humidity
66962;HTU21D;53897;51.126;5.868;2023-04-01T00:00:56;22.40;45.64
66962;HTU21D;53897;51.126;5.868;2023-04-01T00:03:23;22.38;45.63
66962;HTU21D;53897;51.126;5.868;2023-04-01T00:05:49;22.37;45.63
66962;HTU21D;53897;51.126;5.868;2023-04-01T00:08:15;22.37;45.60
66962;HTU21D;53897;51.126;5.868;2023-04-01T00:10:41;22.36;45.58
66962;HTU21D;53897;51.126;5.868;2023-04-01T00:13:08;22.34;45.55
66962;HTU21D;53897;51.126;5.868;2023-04-01T00:15:34;22.35;45.51
66962;HTU21D;53897;51.126;5.868;2023-04-01T00:18:00;22.33;45.51
66962;HTU21D;53897;51.126;5.868;2023-04-01T00:20:26;22.32;45.48
66962;HTU21D;53897;51.126;5.868;2023-04-01T00:22:52;22.31;45.48
66962;HTU21D;53897;51.126;5.868;2023-04-01T00:25:18;22.28;45.47
66962;HTU21D;53897;51.126;5.868;2023-04-01T00:27:44;22.28;45.47
66962;HTU21D;53897;51.126;5.868;2023-04-01T00:30:10;22.25;45.43
66962;HTU21D;53897;51.126;5.868;2023-04-01T00:32:35;22.25;45.41
66962;HTU21D;53897;51.126;5.868;2023-04-01T00:35:02;22.24;45.38
66962;HTU21D;53897;51.126;5.868;2023-04-01T00:37:29;22.23;45.38
66962;HTU21D;53897;51.126;5.868;2023-04-01T00:39:56;22.22;45.33
66962;HTU21D;53897;51.126;5.868;2023-04-01T00:42:22;22.21;45.31
66962;HTU21D;53897;51.126;5.868;2023-04-01T00:44:54;22.21;45.32
66962;HTU21D;53897;51.126;5.868;2023-04-01T00:47:21;22.19;45.32
66962;HTU21D;53897;51.126;5.868;2023-04-01T00:49:51;22.18;45.32
66962;HTU21D;53897;51.126;5.868;2023-04-01T00:52:22;22.16;45.31
66962;HTU21D;53897;51.126;5.868;2023-04-01T00:54:54;22.16;45.32
66962;HTU21D;53897;51.126;5.868;2023-04-01T00:57:27;22.14;45.28
66962;HTU21D;53897;51.126;5.868;2023-04-01T00:59:54;22.13;45.30
66962;HTU21D;53897;51.126;5.868;2023-04-01T01:02:22;22.12;45.26
66962;HTU21D;53897;51.126;5.868;2023-04-01T01:04:48;22.12;45.28
66962;HTU21D;53897;51.126;5.868;2023-04-01T01:13:11;22.08;45.24
66962;HTU21D;53897;51.126;5.868;2023-04-01T01:16:06;22.07;45.21
66962;HTU21D;53897;51.126;5.868;2023-04-01T01:18:49;22.06;45.19
66962;HTU21D;53897;51.126;5.868;2023-04-01T01:24:59;22.04;45.21
66962;HTU21D;53897;51.126;5.868;2023-04-01T01:27:31;22.02;45.19
66962;HTU21D;53897;51.126;5.868;2023-04-01T01:35:28;21.99;45.19
66962;HTU21D;53897;51.126;5.868;2023-04-01T01:38:04;21.97;45.17
66962;HTU21D;53897;51.126;5.868;2023-04-01T01:40:33;21.97;45.23
66962;HTU21D;53897;51.126;5.868;2023-04-01T01:43:05;21.96;45.20
66962;HTU21D;53897;51.126;5.868;2023-04-01T01:45:35;21.96;45.19
66962;HTU21D;53897;51.126;5.868;2023-04-01T01:48:04;21.94;45.18
66962;HTU21D;53897;51.126;5.868;2023-04-01T01:50:32;21.94;45.18
66962;HTU21D;53897;51.126;5.868;2023-04-01T01:53:08;21.93;45.18
66962;HTU21D;53897;51.126;5.868;2023-04-01T01:55:41;21.93;45.19
66962;HTU21D;53897;51.126;5.868;2023-04-01T01:58:18;21.92;45.19
66962;HTU21D;53897;51.126;5.868;2023-04-01T02:00:53;21.92;45.19
66962;HTU21D;53897;51.126;5.868;2023-04-01T02:03:22;21.90;45.21
66962;HTU21D;53897;51.126;5.868;2023-04-01T02:05:53;21.87;45.20
66962;HTU21D;53897;51.126;5.868;2023-04-01T02:08:53;21.87;45.20
66962;HTU21D;53897;51.126;5.868;2023-04-01T02:11:46;21.87;45.20
66962;HTU21D;53897;51.126;5.868;2023-04-01T02:14:20;21.85;45.23
66962;HTU21D;53897;51.126;5.868;2023-04-01T02:16:56;21.84;45.20
66962;HTU21D;53897;51.126;5.868;2023-04-01T02:19:32;21.84;45.22
66962;HTU21D;53897;51.126;5.868;2023-04-01T02:22:02;21.84;45.22
66962;HTU21D;53897;51.126;5.868;2023-04-01T02:24:33;21.82;45.23
66962;HTU21D;53897;51.126;5.868;2023-04-01T02:27:00;21.81;45.25
66962;HTU21D;53897;51.126;5.868;2023-04-01T02:29:27;21.80;45.23
66962;HTU21D;53897;51.126;5.868;2023-04-01T02:31:54;21.80;45.25
66962;HTU21D;53897;51.126;5.868;2023-04-01T02:34:22;21.79;45.23
66962;HTU21D;53897;51.126;5.868;2023-04-01T02:36:50;21.79;45.24
66962;HTU21D;53897;51.126;5.868;2023-04-01T02:39:17;21.78;45.25
66962;HTU21D;53897;51.126;5.868;2023-04-01T02:41:45;21.77;45.26
66962;HTU21D;53897;51.126;5.868;2023-04-01T02:44:13;21.77;45.24
66962;HTU21D;53897;51.126;5.868;2023-04-01T02:46:39;21.76;45.24
66962;HTU21D;53897;51.126;5.868;2023-04-01T02:49:05;21.76;45.26
66962;HTU21D;53897;51.126;5.868;2023-04-01T02:51:32;21.75;45.26
66962;HTU21D;53897;51.126;5.868;2023-04-01T02:53:57;21.73;45.27
66962;HTU21D;53897;51.126;5.868;2023-04-01T02:56:23;21.72;45.28
66962;HTU21D;53897;51.126;5.868;2023-04-01T02:58:49;21.70;45.28
66962;HTU21D;53897;51.126;5.868;2023-04-01T03:01:15;21.70;45.28
66962;HTU21D;53897;51.126;5.868;2023-04-01T03:03:40;21.72;45.27
66962;HTU21D;53897;51.126;5.868;2023-04-01T03:06:12;21.69;45.26
66962;HTU21D;53897;51.126;5.868;2023-04-01T03:08:39;21.68;45.24
66962;HTU21D;53897;51.126;5.868;2023-04-01T03:11:05;21.67;45.24
66962;HTU21D;53897;51.126;5.868;2023-04-01T03:13:33;21.67;45.22
66962;HTU21D;53897;51.126;5.868;2023-04-01T03:15:59;21.66;45.21
66962;HTU21D;53897;51.126;5.868;2023-04-01T03:18:25;21.65;45.24
66962;HTU21D;53897;51.126;5.868;2023-04-01T03:20:51;21.64;45.23
66962;HTU21D;53897;51.126;5.868;2023-04-01T03:23:17;21.62;45.26
66962;HTU21D;53897;51.126;5.868;2023-04-01T03:25:45;21.64;45.23
66962;HTU21D;53897;51.126;5.868;2023-04-01T03:28:11;21.63;45.25
66962;HTU21D;53897;51.126;5.868;2023-04-01T03:30:37;21.61;45.26
66962;HTU21D;53897;51.126;5.868;2023-04-01T03:33:03;21.63;45.28
66962;HTU21D;53897;51.126;5.868;2023-04-01T03:35:31;21.59;45.27
66962;HTU21D;53897;51.126;5.868;2023-04-01T03:37:57;21.60;45.27
66962;HTU21D;53897;51.126;5.868;2023-04-01T03:40:23;21.59;45.28
66962;HTU21D;53897;51.126;5.868;2023-04-01T03:42:52;21.60;45.28
66962;HTU21D;53897;51.126;5.868;2023-04-01T03:45:18;21.58;45.29
66962;HTU21D;53897;51.126;5.868;2023-04-01T03:47:44;21.58;45.29
66962;HTU21D;53897;51.126;5.868;2023-04-01T03:50:10;21.57;45.30
66962;HTU21D;53897;51.126;5.868;2023-04-01T03:52:36;21.57;45.31
66962;HTU21D;53897;51.126;5.868;2023-04-01T03:55:02;21.54;45.29
66962;HTU21D;53897;51.126;5.868;2023-04-01T03:57:31;21.53;45.28
66962;HTU21D;53897;51.126;5.868;2023-04-01T04:00:01;21.54;45.30
66962;HTU21D;53897;51.126;5.868;2023-04-01T04:02:28;21.53;45.28
66962;HTU21D;53897;51.126;5.868;2023-04-01T04:04:54;21.53;45.28
66962;HTU21D;53897;51.126;5.868;2023-04-01T04:07:20;21.51;45.30
66962;HTU21D;53897;51.126;5.868;2023-04-01T04:09:59;21.51;45.29
66962;HTU21D;53897;51.126;5.868;2023-04-01T04:12:25;21.51;45.29
66962;HTU21D;53897;51.126;5.868;2023-04-01T04:14:51;21.50;45.32
66962;HTU21D;53897;51.126;5.868;2023-04-01T04:17:16;21.51;45.33
66962;HTU21D;53897;51.126;5.868;2023-04-01T04:19:43;21.48;45.37
66962;HTU21D;53897;51.126;5.868;2023-04-01T04:22:09;21.46;45.48
66962;HTU21D;53897;51.126;5.868;2023-04-01T04:24:35;21.44;45.54
66962;HTU21D;53897;51.126;5.868;2023-04-01T04:27:07;21.43;45.61
66962;HTU21D;53897;51.126;5.868;2023-04-01T04:29:35;21.42;45.66
66962;HTU21D;53897;51.126;5.868;2023-04-01T04:32:00;21.42;45.67
66962;HTU21D;53897;51.126;5.868;2023-04-01T04:34:26;21.40;45.70
66962;HTU21D;53897;51.126;5.868;2023-04-01T04:36:52;21.40;45.73
66962;HTU21D;53897;51.126;5.868;2023-04-01T04:39:19;21.38;45.76
66962;HTU21D;53897;51.126;5.868;2023-04-01T04:41:45;21.37;45.80
66962;HTU21D;53897;51.126;5.868;2023-04-01T04:44:11;21.36;45.86
66962;HTU21D;53897;51.126;5.868;2023-04-01T04:46:37;21.33;45.90
66962;HTU21D;53897;51.126;5.868;2023-04-01T04:49:11;21.31;46.04
66962;HTU21D;53897;51.126;5.868;2023-04-01T04:51:37;21.30;46.10
66962;HTU21D;53897;51.126;5.868;2023-04-01T04:54:04;21.31;46.17
66962;HTU21D;53897;51.126;5.868;2023-04-01T04:56:44;21.36;46.13
66962;HTU21D;53897;51.126;5.868;2023-04-01T04:59:10;21.42;46.11
66962;HTU21D;53897;51.126;5.868;2023-04-01T05:01:42;21.44;46.07
66962;HTU21D;53897;51.126;5.868;2023-04-01T05:04:08;21.47;46.02
66962;HTU21D;53897;51.126;5.868;2023-04-01T05:06:34;21.51;46.00
66962;HTU21D;53897;51.126;5.868;2023-04-01T05:08:59;21.55;45.94
66962;HTU21D;53897;51.126;5.868;2023-04-01T05:11:25;21.59;45.90
66962;HTU21D;53897;51.126;5.868;2023-04-01T05:13:52;21.61;45.89
66962;HTU21D;53897;51.126;5.868;2023-04-01T05:16:19;21.64;45.88
66962;HTU21D;53897;51.126;5.868;2023-04-01T05:18:46;21.65;45.83
66962;HTU21D;53897;51.126;5.868;2023-04-01T05:21:13;21.69;45.83
66962;HTU21D;53897;51.126;5.868;2023-04-01T05:23:41;21.70;45.82
66962;HTU21D;53897;51.126;5.868;2023-04-01T05:26:11;21.73;45.83
66962;HTU21D;53897;51.126;5.868;2023-04-01T05:28:37;21.75;45.83
66962;HTU21D;53897;51.126;5.868;2023-04-01T05:31:04;21.77;45.82
66962;HTU21D;53897;51.126;5.868;2023-04-01T05:33:35;21.78;45.82
66962;HTU21D;53897;51.126;5.868;2023-04-01T05:36:13;21.78;45.86
66962;HTU21D;53897;51.126;5.868;2023-04-01T05:38:40;21.81;45.86
66962;HTU21D;53897;51.126;5.868;2023-04-01T05:41:09;21.83;45.84
66962;HTU21D;53897;51.126;5.868;2023-04-01T05:43:40;21.81;45.87
66962;HTU21D;53897;51.126;5.868;2023-04-01T05:46:24;21.82;45.89
66962;HTU21D;53897;51.126;5.868;2023-04-01T05:48:57;21.82;45.88
66962;HTU21D;53897;51.126;5.868;2023-04-01T05:51:24;21.82;45.83
66962;HTU21D;53897;51.126;5.868;2023-04-01T05:53:50;21.84;45.78
66962;HTU21D;53897;51.126;5.868;2023-04-01T05:56:16;21.84;45.80
66962;HTU21D;53897;51.126;5.868;2023-04-01T05:58:51;21.84;45.78
66962;HTU21D;53897;51.126;5.868;2023-04-01T06:01:18;21.84;45.80
66962;HTU21D;53897;51.126;5.868;2023-04-01T06:03:44;21.84;45.82
66962;HTU21D;53897;51.126;5.868;2023-04-01T06:06:15;21.87;45.80
66962;HTU21D;53897;51.126;5.868;2023-04-01T06:08:42;21.88;45.77
66962;HTU21D;53897;51.126;5.868;2023-04-01T06:14:10;21.87;45.75
66962;HTU21D;53897;51.126;5.868;2023-04-01T06:19:30;21.88;45.77
66962;HTU21D;53897;51.126;5.868;2023-04-01T06:25:25;21.93;45.83
66962;HTU21D;53897;51.126;5.868;2023-04-01T06:28:23;21.97;45.83
66962;HTU21D;53897;51.126;5.868;2023-04-01T06:33:55;22.05;45.75
66962;HTU21D;53897;51.126;5.868;2023-04-01T06:36:43;22.08;45.71
66962;HTU21D;53897;51.126;5.868;2023-04-01T06:50:55;22.21;45.60
66962;HTU21D;53897;51.126;5.868;2023-04-01T06:54:07;22.22;45.67
66962;HTU21D;53897;51.126;5.868;2023-04-01T06:59:54;22.25;45.77
66962;HTU21D;53897;51.126;5.868;2023-04-01T07:02:48;22.27;45.76
66962;HTU21D;53897;51.126;5.868;2023-04-01T07:05:20;22.28;45.71
66962;HTU21D;53897;51.126;5.868;2023-04-01T07:07:52;22.29;45.80
66962;HTU21D;53897;51.126;5.868;2023-04-01T07:10:28;22.29;45.86
66962;HTU21D;53897;51.126;5.868;2023-04-01T07:16:32;22.32;45.81
66962;HTU21D;53897;51.126;5.868;2023-04-01T07:21:50;22.33;45.95
66962;HTU21D;53897;51.126;5.868;2023-04-01T07:24:34;22.34;46.01
66962;HTU21D;53897;51.126;5.868;2023-04-01T07:27:11;22.33;46.12
66962;HTU21D;53897;51.126;5.868;2023-04-01T07:29:39;22.35;46.19
66962;HTU21D;53897;51.126;5.868;2023-04-01T07:32:38;22.36;46.24
66962;HTU21D;53897;51.126;5.868;2023-04-01T07:35:09;22.39;46.25
66962;HTU21D;53897;51.126;5.868;2023-04-01T07:41:12;22.47;46.31
66962;HTU21D;53897;51.126;5.868;2023-04-01T07:43:56;22.48;46.35
66962;HTU21D;53897;51.126;5.868;2023-04-01T07:49:40;22.60;46.36
66962;HTU21D;53897;51.126;5.868;2023-04-01T07:52:16;22.64;46.33
66962;HTU21D;53897;51.126;5.868;2023-04-01T07:55:13;22.69;46.31
66962;HTU21D;53897;51.126;5.868;2023-04-01T08:25:56;22.83;46.06
66962;HTU21D;53897;51.126;5.868;2023-04-01T08:31:11;22.84;45.95
66962;HTU21D;53897;51.126;5.868;2023-04-01T08:33:44;22.86;45.88
66962;HTU21D;53897;51.126;5.868;2023-04-01T08:36:23;22.84;45.84
66962;HTU21D;53897;51.126;5.868;2023-04-01T08:39:15;22.86;45.76
66962;HTU21D;53897;51.126;5.868;2023-04-01T08:42:17;22.87;45.70
66962;HTU21D;53897;51.126;5.868;2023-04-01T08:54:08;22.85;45.78
66962;HTU21D;53897;51.126;5.868;2023-04-01T08:56:50;22.84;45.86
66962;HTU21D;53897;51.126;5.868;2023-04-01T08:59:57;22.83;45.93
66962;HTU21D;53897;51.126;5.868;2023-04-01T09:06:35;22.82;45.99
66962;HTU21D;53897;51.126;5.868;2023-04-01T09:09:34;22.81;45.98
66962;HTU21D;53897;51.126;5.868;2023-04-01T09:18:02;22.80;45.90
66962;HTU21D;53897;51.126;5.868;2023-04-01T09:20:51;22.80;45.93
66962;HTU21D;53897;51.126;5.868;2023-04-01T09:26:22;22.81;45.96
66962;HTU21D;53897;51.126;5.868;2023-04-01T09:29:18;22.81;45.96
66962;HTU21D;53897;51.126;5.868;2023-04-01T09:35:14;22.81;45.98
66962;HTU21D;53897;51.126;5.868;2023-04-01T09:40:54;22.82;46.00
66962;HTU21D;53897;51.126;5.868;2023-04-01T09:53:27;22.82;45.96
66962;HTU21D;53897;51.126;5.868;2023-04-01T09:56:43;22.82;45.97
66962;HTU21D;53897;51.126;5.868;2023-04-01T10:19:55;22.69;46.39
66962;HTU21D;53897;51.126;5.868;2023-04-01T10:22:48;22.73;46.44
66962;HTU21D;53897;51.126;5.868;2023-04-01T10:55:19;22.77;46.53
66962;HTU21D;53897;51.126;5.868;2023-04-01T11:16:34;22.82;46.44
66962;HTU21D;53897;51.126;5.868;2023-04-01T11:19:28;22.82;46.38
66962;HTU21D;53897;51.126;5.868;2023-04-01T11:22:29;22.82;46.34
66962;HTU21D;53897;51.126;5.868;2023-04-01T11:29:08;22.82;46.24
66962;HTU21D;53897;51.126;5.868;2023-04-01T11:41:03;22.82;46.09
66962;HTU21D;53897;51.126;5.868;2023-04-01T11:47:27;22.80;46.02
66962;HTU21D;53897;51.126;5.868;2023-04-01T12:04:33;22.81;45.89
66962;HTU21D;53897;51.126;5.868;2023-04-01T12:24:25;22.81;48.00
66962;HTU21D;53897;51.126;5.868;2023-04-01T12:29:54;22.83;47.89
66962;HTU21D;53897;51.126;5.868;2023-04-01T12:38:10;22.85;48.21
66962;HTU21D;53897;51.126;5.868;2023-04-01T12:49:13;22.86;48.20
66962;HTU21D;53897;51.126;5.868;2023-04-01T12:52:03;22.87;48.24
66962;HTU21D;53897;51.126;5.868;2023-04-01T12:57:30;22.88;48.19
66962;HTU21D;53897;51.126;5.868;2023-04-01T13:06:28;22.91;48.11
66962;HTU21D;53897;51.126;5.868;2023-04-01T13:17:30;22.93;47.97
66962;HTU21D;53897;51.126;5.868;2023-04-01T13:20:16;22.93;47.95
66962;HTU21D;53897;51.126;5.868;2023-04-01T13:23:06;22.94;47.93
66962;HTU21D;53897;51.126;5.868;2023-04-01T13:25:50;22.94;47.89
66962;HTU21D;53897;51.126;5.868;2023-04-01T13:28:34;22.94;47.83
66962;HTU21D;53897;51.126;5.868;2023-04-01T13:34:17;22.96;47.78
66962;HTU21D;53897;51.126;5.868;2023-04-01T13:40:03;22.96;47.72
66962;HTU21D;53897;51.126;5.868;2023-04-01T13:42:53;22.94;47.68
66962;HTU21D;53897;51.126;5.868;2023-04-01T13:45:29;22.96;47.63
66962;HTU21D;53897;51.126;5.868;2023-04-01T13:53:38;22.98;47.59
66962;HTU21D;53897;51.126;5.868;2023-04-01T13:56:20;22.96;47.55
66962;HTU21D;53897;51.126;5.868;2023-04-01T14:01:42;22.97;47.54
66962;HTU21D;53897;51.126;5.868;2023-04-01T14:04:44;22.97;47.54
66962;HTU21D;53897;51.126;5.868;2023-04-01T14:07:47;22.97;47.45
66962;HTU21D;53897;51.126;5.868;2023-04-01T14:13:23;22.96;47.45
66962;HTU21D;53897;51.126;5.868;2023-04-01T14:16:44;22.97;47.43
66962;HTU21D;53897;51.126;5.868;2023-04-01T14:21:43;22.97;47.34
66962;HTU21D;53897;51.126;5.868;2023-04-01T14:36:05;22.94;47.13
66962;HTU21D;53897;51.126;5.868;2023-04-01T14:42:03;22.94;47.03
66962;HTU21D;53897;51.126;5.868;2023-04-01T14:47:51;22.94;46.96
66962;HTU21D;53897;51.126;5.868;2023-04-01T14:50:22;22.95;46.90
66962;HTU21D;53897;51.126;5.868;2023-04-01T14:52:59;22.94;46.96
66962;HTU21D;53897;51.126;5.868;2023-04-01T14:55:50;22.92;46.98
66962;HTU21D;53897;51.126;5.868;2023-04-01T14:58:22;22.92;47.01
66962;HTU21D;53897;51.126;5.868;2023-04-01T15:03:32;22.92;47.09
66962;HTU21D;53897;51.126;5.868;2023-04-01T15:06:32;22.91;47.11
66962;HTU21D;53897;51.126;5.868;2023-04-01T15:12:33;22.88;47.05
66962;HTU21D;53897;51.126;5.868;2023-04-01T15:18:18;22.88;47.63
66962;HTU21D;53897;51.126;5.868;2023-04-01T15:23:37;22.87;47.57
66962;HTU21D;53897;51.126;5.868;2023-04-01T15:26:21;22.86;47.51
66962;HTU21D;53897;51.126;5.868;2023-04-01T15:34:23;22.85;47.44
66962;HTU21D;53897;51.126;5.868;2023-04-01T15:48:22;22.85;48.08
66962;HTU21D;53897;51.126;5.868;2023-04-01T15:51:17;22.86;48.52
66962;HTU21D;53897;51.126;5.868;2023-04-01T15:53:54;22.86;48.74
66962;HTU21D;53897;51.126;5.868;2023-04-01T16:04:56;22.92;49.56
66962;HTU21D;53897;51.126;5.868;2023-04-01T16:07:48;22.91;49.40
66962;HTU21D;53897;51.126;5.868;2023-04-01T16:16:21;22.93;49.46
66962;HTU21D;53897;51.126;5.868;2023-04-01T16:22:05;22.94;49.63
66962;HTU21D;53897;51.126;5.868;2023-04-01T16:24:46;22.94;49.69
66962;HTU21D;53897;51.126;5.868;2023-04-01T16:27:40;22.93;49.78
66962;HTU21D;53897;51.126;5.868;2023-04-01T16:30:36;22.94;49.78
66962;HTU21D;53897;51.126;5.868;2023-04-01T16:36:28;22.95;50.07
66962;HTU21D;53897;51.126;5.868;2023-04-01T16:47:38;22.91;50.02
66962;HTU21D;53897;51.126;5.868;2023-04-01T16:50:30;22.92;50.02
66962;HTU21D;53897;51.126;5.868;2023-04-01T16:55:43;22.93;49.88
66962;HTU21D;53897;51.126;5.868;2023-04-01T16:58:25;22.94;49.82
66962;HTU21D;53897;51.126;5.868;2023-04-01T17:01:21;22.95;49.82
66962;HTU21D;53897;51.126;5.868;2023-04-01T17:03:57;22.95;49.73
66962;HTU21D;53897;51.126;5.868;2023-04-01T17:09:29;22.98;49.60
66962;HTU21D;53897;51.126;5.868;2023-04-01T17:17:38;22.99;49.51
66962;HTU21D;53897;51.126;5.868;2023-04-01T17:20:12;22.99;49.51
66962;HTU21D;53897;51.126;5.868;2023-04-01T17:25:39;23.00;49.41
66962;HTU21D;53897;51.126;5.868;2023-04-01T17:28:44;23.01;49.30
66962;HTU21D;53897;51.126;5.868;2023-04-01T17:34:05;23.00;49.25
66962;HTU21D;53897;51.126;5.868;2023-04-01T17:42:55;23.00;49.24
66962;HTU21D;53897;51.126;5.868;2023-04-01T17:45:44;23.01;49.19
66962;HTU21D;53897;51.126;5.868;2023-04-01T17:48:24;23.02;49.18
66962;HTU21D;53897;51.126;5.868;2023-04-01T17:53:45;23.01;49.18
66962;HTU21D;53897;51.126;5.868;2023-04-01T17:56:32;23.01;49.21
66962;HTU21D;53897;51.126;5.868;2023-04-01T18:04:57;23.02;49.13
66962;HTU21D;53897;51.126;5.868;2023-04-01T18:07:57;23.01;49.17
66962;HTU21D;53897;51.126;5.868;2023-04-01T18:13:46;23.01;49.19
66962;HTU21D;53897;51.126;5.868;2023-04-01T18:16:37;23.01;49.26
66962;HTU21D;53897;51.126;5.868;2023-04-01T18:24:47;23.01;49.11
66962;HTU21D;53897;51.126;5.868;2023-04-01T18:27:23;23.00;49.14
66962;HTU21D;53897;51.126;5.868;2023-04-01T18:29:55;22.99;49.15
66962;HTU21D;53897;51.126;5.868;2023-04-01T18:32:34;23.00;49.15
66962;HTU21D;53897;51.126;5.868;2023-04-01T18:35:24;23.00;49.09
66962;HTU21D;53897;51.126;5.868;2023-04-01T18:40:33;22.99;48.92
66962;HTU21D;53897;51.126;5.868;2023-04-01T18:43:14;23.00;48.90
66962;HTU21D;53897;51.126;5.868;2023-04-01T18:45:53;23.00;48.89
66962;HTU21D;53897;51.126;5.868;2023-04-01T18:48:38;22.99;48.80
66962;HTU21D;53897;51.126;5.868;2023-04-01T18:51:35;23.00;48.76
66962;HTU21D;53897;51.126;5.868;2023-04-01T18:56:49;23.00;48.70
66962;HTU21D;53897;51.126;5.868;2023-04-01T18:59:39;22.99;48.68
66962;HTU21D;53897;51.126;5.868;2023-04-01T19:04:51;22.97;48.67
66962;HTU21D;53897;51.126;5.868;2023-04-01T19:10:37;22.98;48.55
66962;HTU21D;53897;51.126;5.868;2023-04-01T19:15:44;22.98;48.47
66962;HTU21D;53897;51.126;5.868;2023-04-01T19:21:26;22.97;48.46
66962;HTU21D;53897;51.126;5.868;2023-04-01T19:37:50;22.96;48.37
66962;HTU21D;53897;51.126;5.868;2023-04-01T19:40:37;22.95;48.38
66962;HTU21D;53897;51.126;5.868;2023-04-01T19:43:32;22.94;48.24
66962;HTU21D;53897;51.126;5.868;2023-04-01T19:46:14;22.93;48.36
66962;HTU21D;53897;51.126;5.868;2023-04-01T19:59:58;22.93;48.79
66962;HTU21D;53897;51.126;5.868;2023-04-01T20:07:54;22.93;48.81
66962;HTU21D;53897;51.126;5.868;2023-04-01T20:10:56;22.96;48.79
66962;HTU21D;53897;51.126;5.868;2023-04-01T20:13:34;22.95;48.76
66962;HTU21D;53897;51.126;5.868;2023-04-01T20:16:08;22.95;48.76
66962;HTU21D;53897;51.126;5.868;2023-04-01T20:18:47;22.96;48.73
66962;HTU21D;53897;51.126;5.868;2023-04-01T20:23:45;22.95;48.69
66962;HTU21D;53897;51.126;5.868;2023-04-01T20:26:20;22.96;48.69
66962;HTU21D;53897;51.126;5.868;2023-04-01T20:31:42;22.96;48.70
66962;HTU21D;53897;51.126;5.868;2023-04-01T20:37:36;22.96;48.70
66962;HTU21D;53897;51.126;5.868;2023-04-01T20:46:00;22.96;48.75
66962;HTU21D;53897;51.126;5.868;2023-04-01T20:51:24;22.95;48.73
66962;HTU21D;53897;51.126;5.868;2023-04-01T20:57:00;22.94;48.76
66962;HTU21D;53897;51.126;5.868;2023-04-01T21:02:53;22.94;48.73
66962;HTU21D;53897;51.126;5.868;2023-04-01T21:10:45;22.91;48.73
66962;HTU21D;53897;51.126;5.868;2023-04-01T21:13:41;22.91;48.56
66962;HTU21D;53897;51.126;5.868;2023-04-01T21:16:25;22.91;48.64
66962;HTU21D;53897;51.126;5.868;2023-04-01T21:22:00;22.88;48.72
66962;HTU21D;53897;51.126;5.868;2023-04-01T21:24:58;22.88;48.73
66962;HTU21D;53897;51.126;5.868;2023-04-01T21:30:19;22.87;48.86
66962;HTU21D;53897;51.126;5.868;2023-04-01T21:41:36;22.83;48.75
66962;HTU21D;53897;51.126;5.868;2023-04-01T21:52:27;22.80;48.76
66962;HTU21D;53897;51.126;5.868;2023-04-01T22:04:39;22.77;48.73
66962;HTU21D;53897;51.126;5.868;2023-04-01T22:07:17;22.76;48.75
66962;HTU21D;53897;51.126;5.868;2023-04-01T22:10:05;22.73;48.73
66962;HTU21D;53897;51.126;5.868;2023-04-01T22:13:43;22.72;48.70
66962;HTU21D;53897;51.126;5.868;2023-04-01T22:19:04;22.73;48.63
66962;HTU21D;53897;51.126;5.868;2023-04-01T22:30:18;22.66;48.62
66962;HTU21D;53897;51.126;5.868;2023-04-01T22:32:50;22.66;48.61
66962;HTU21D;53897;51.126;5.868;2023-04-01T22:41:25;22.61;48.61
66962;HTU21D;53897;51.126;5.868;2023-04-01T22:43:47;22.61;48.60
66962;HTU21D;53897;51.126;5.868;2023-04-01T22:46:24;22.60;48.57
66962;HTU21D;53897;51.126;5.868;2023-04-01T22:51:45;22.57;48.38
66962;HTU21D;53897;51.126;5.868;2023-04-01T22:54:34;22.57;48.38
66962;HTU21D;53897;51.126;5.868;2023-04-01T22:57:10;22.56;48.47
66962;HTU21D;53897;51.126;5.868;2023-04-01T22:59:52;22.55;48.47
66962;HTU21D;53897;51.126;5.868;2023-04-01T23:02:32;22.53;48.45
66962;HTU21D;53897;51.126;5.868;2023-04-01T23:05:03;22.52;48.42
66962;HTU21D;53897;51.126;5.868;2023-04-01T23:07:50;22.51;48.40
66962;HTU21D;53897;51.126;5.868;2023-04-01T23:12:46;22.50;48.33
66962;HTU21D;53897;51.126;5.868;2023-04-01T23:15:14;22.48;48.29
66962;HTU21D;53897;51.126;5.868;2023-04-01T23:23:33;22.43;48.24
66962;HTU21D;53897;51.126;5.868;2023-04-01T23:26:12;22.42;48.22
66962;HTU21D;53897;51.126;5.868;2023-04-01T23:28:50;22.41;48.24
66962;HTU21D;53897;51.126;5.868;2023-04-01T23:31:41;22.40;48.21
66962;HTU21D;53897;51.126;5.868;2023-04-01T23:36:46;22.37;48.17
66962;HTU21D;53897;51.126;5.868;2023-04-01T23:42:17;22.36;48.14
66962;HTU21D;53897;51.126;5.868;2023-04-01T23:44:47;22.34;48.12
66962;HTU21D;53897;51.126;5.868;2023-04-01T23:47:29;22.34;48.09
66962;HTU21D;53897;51.126;5.868;2023-04-01T23:50:00;22.31;48.05
66962;HTU21D;53897;51.126;5.868;2023-04-01T23:52:35;22.31;48.04
66962;HTU21D;53897;51.126;5.868;2023-04-01T23:55:12;22.28;48.03
66962;HTU21D;53897;51.126;5.868;2023-04-01T23:57:39;22.26;48.02
